createdAt,value
2023-12-28T00:01:12.295Z,54.55
2023-12-28T00:04:14.712Z,54.24
2023-12-28T00:07:16.952Z,55.00
2023-12-28T00:10:20.369Z,55.19
2023-12-28T00:13:22.595Z,55.41
2023-12-28T00:16:24.787Z,55.15
2023-12-28T00:19:27.464Z,54.32
2023-12-28T00:22:29.843Z,54.74
2023-12-28T00:25:32.106Z,55.05
2023-12-28T00:28:34.287Z,54.73
2023-12-28T00:31:36.606Z,54.93
2023-12-28T00:34:40.913Z,55.27
2023-12-28T00:37:44.545Z,54.96
2023-12-28T00:40:47.433Z,54.40
2023-12-28T00:43:49.587Z,55.14
2023-12-28T00:46:51.809Z,54.82
2023-12-28T00:49:54.227Z,55.00
2023-12-28T00:52:56.573Z,54.56
2023-12-28T00:55:58.800Z,55.28
2023-12-28T00:59:03.131Z,54.78
2023-12-28T01:02:05.378Z,54.94
2023-12-28T01:05:08.498Z,55.30
2023-12-28T01:08:10.779Z,55.13
2023-12-28T01:11:13.564Z,54.70
2023-12-28T01:14:16.826Z,54.73
2023-12-28T01:17:20.460Z,55.07
2023-12-28T01:20:22.685Z,55.16
2023-12-28T01:23:25.006Z,55.15
2023-12-28T01:26:28.972Z,54.97
2023-12-28T01:29:33.942Z,55.36
2023-12-28T01:32:36.200Z,54.49
2023-12-28T01:35:38.461Z,54.63
2023-12-28T01:38:40.683Z,54.26
2023-12-28T01:41:45.344Z,54.52
2023-12-28T01:44:47.924Z,54.40
2023-12-28T01:47:51.102Z,54.34
2023-12-28T01:50:53.456Z,55.11
2023-12-28T01:53:55.926Z,54.50
2023-12-28T01:56:58.821Z,54.56
2023-12-28T02:00:02.722Z,54.07
2023-12-28T02:03:15.344Z,54.77
2023-12-28T02:06:18.054Z,54.00
2023-12-28T02:09:20.441Z,54.73
2023-12-28T02:12:22.736Z,54.50
2023-12-28T02:15:25.155Z,54.58
2023-12-28T02:18:33.334Z,54.90
2023-12-28T02:21:35.723Z,54.56
2023-12-28T02:25:13.104Z,55.02
2023-12-28T02:28:16.082Z,54.93
2023-12-28T02:31:40.543Z,55.21
2023-12-28T02:34:44.204Z,53.92
2023-12-28T02:37:49.252Z,54.26
2023-12-28T02:40:52.325Z,54.31
2023-12-28T02:43:54.567Z,54.38
2023-12-28T02:46:56.805Z,54.28
2023-12-28T02:50:00.503Z,54.20
2023-12-28T02:53:03.249Z,54.81
2023-12-28T02:56:05.886Z,54.90
2023-12-28T02:59:08.171Z,54.23
2023-12-28T03:02:10.363Z,54.23
2023-12-28T03:05:12.691Z,54.87
2023-12-28T03:08:15.127Z,54.66
2023-12-28T03:11:17.441Z,54.60
2023-12-28T03:14:19.741Z,55.18
2023-12-28T03:17:22.187Z,54.55
2023-12-28T03:20:24.448Z,55.18
2023-12-28T03:23:26.733Z,54.81
2023-12-28T03:26:29.012Z,54.55
2023-12-28T03:29:32.110Z,54.49
2023-12-28T03:32:34.455Z,54.34
2023-12-28T03:35:36.712Z,54.36
2023-12-28T03:38:39.847Z,54.37
2023-12-28T03:41:42.091Z,53.88
2023-12-28T03:44:44.422Z,54.44
2023-12-28T03:47:46.778Z,54.26
2023-12-28T03:50:49.212Z,53.58
2023-12-28T03:53:51.472Z,53.96
2023-12-28T03:56:55.290Z,54.10
2023-12-28T03:59:58.021Z,53.93
2023-12-28T04:03:01.151Z,54.07
2023-12-28T04:06:03.535Z,54.13
2023-12-28T04:09:05.835Z,53.14
2023-12-28T04:12:08.575Z,53.96
2023-12-28T04:15:11.003Z,54.44
2023-12-28T04:18:13.511Z,54.30
2023-12-28T04:21:15.986Z,53.80
2023-12-28T04:24:18.325Z,53.71
2023-12-28T04:27:20.662Z,53.89
2023-12-28T04:30:22.957Z,53.86
2023-12-28T04:33:25.299Z,53.74
2023-12-28T04:36:27.715Z,54.04
2023-12-28T04:39:30.268Z,53.53
2023-12-28T04:42:32.782Z,53.91
2023-12-28T04:45:35.217Z,54.13
2023-12-28T04:48:37.831Z,54.02
2023-12-28T04:51:45.478Z,53.63
2023-12-28T04:54:47.917Z,53.62
2023-12-28T04:57:50.399Z,53.41
2023-12-28T05:00:54.352Z,53.66
2023-12-28T05:03:56.677Z,53.68
2023-12-28T05:06:59.026Z,54.16
2023-12-28T05:10:01.378Z,53.64
2023-12-28T05:13:03.807Z,53.67
2023-12-28T05:16:07.159Z,53.78
2023-12-28T05:19:10.560Z,53.87
2023-12-28T05:22:13.639Z,53.37
2023-12-28T05:25:15.981Z,52.75
2023-12-28T05:28:18.252Z,53.29
2023-12-28T05:31:20.652Z,53.22
2023-12-28T05:34:23.092Z,53.76
2023-12-28T05:37:25.355Z,53.79
2023-12-28T05:40:27.560Z,53.04
2023-12-28T05:43:29.733Z,53.35
2023-12-28T05:46:31.962Z,53.21
2023-12-28T05:49:34.415Z,53.18
2023-12-28T05:52:36.805Z,52.97
2023-12-28T05:55:39.042Z,53.21
2023-12-28T05:58:41.603Z,52.89
2023-12-28T06:01:44.890Z,53.38
2023-12-28T06:04:47.384Z,52.48
2023-12-28T06:07:49.693Z,52.93
2023-12-28T06:10:51.940Z,53.12
2023-12-28T06:13:54.249Z,52.44
2023-12-28T06:16:56.741Z,52.29
2023-12-28T06:19:59.204Z,52.83
2023-12-28T06:23:01.577Z,53.48
2023-12-28T06:26:07.880Z,52.16
2023-12-28T06:29:10.660Z,52.53
2023-12-28T06:32:13.031Z,52.43
2023-12-28T06:35:15.352Z,51.79
2023-12-28T06:38:17.568Z,52.63
2023-12-28T06:41:19.773Z,52.48
2023-12-28T06:44:21.984Z,52.85
2023-12-28T06:47:24.283Z,52.54
2023-12-28T06:50:26.491Z,52.44
2023-12-28T06:53:28.883Z,52.15
2023-12-28T06:56:31.128Z,51.67
2023-12-28T06:59:33.332Z,52.11
2023-12-28T07:02:35.555Z,51.97
2023-12-28T07:05:37.817Z,52.07
2023-12-28T07:08:40.032Z,52.21
2023-12-28T07:11:42.210Z,51.87
2023-12-28T07:14:44.526Z,51.61
2023-12-28T07:17:46.886Z,51.83
2023-12-28T07:20:49.809Z,51.78
2023-12-28T07:23:52.055Z,51.96
2023-12-28T07:26:54.395Z,51.71
2023-12-28T07:29:56.630Z,52.32
2023-12-28T07:32:59.017Z,51.78
2023-12-28T07:36:03.734Z,52.36
2023-12-28T07:39:05.929Z,52.12
2023-12-28T07:42:08.269Z,52.19
2023-12-28T07:45:10.548Z,52.02
2023-12-28T07:48:12.971Z,52.11
2023-12-28T07:51:15.233Z,52.13
2023-12-28T07:54:17.622Z,52.68
2023-12-28T07:57:19.942Z,51.91
2023-12-28T08:00:22.308Z,52.15
2023-12-28T08:03:24.636Z,51.76
2023-12-28T08:06:27.056Z,52.27
2023-12-28T08:09:29.354Z,51.74
2023-12-28T08:12:31.556Z,51.91
2023-12-28T08:15:34.773Z,52.00
2023-12-28T08:18:37.164Z,52.28
2023-12-28T08:21:39.456Z,52.16
2023-12-28T08:24:41.727Z,51.82
2023-12-28T08:27:44.018Z,52.54
2023-12-28T08:30:46.392Z,52.50
2023-12-28T08:33:48.764Z,52.04
2023-12-28T08:36:51.072Z,52.26
2023-12-28T08:39:54.479Z,52.18
2023-12-28T08:42:56.853Z,52.54
2023-12-28T08:45:59.265Z,52.59
2023-12-28T08:49:01.589Z,52.37
2023-12-28T08:52:04.227Z,51.91
2023-12-28T08:55:07.139Z,52.03
2023-12-28T08:58:09.478Z,52.80
2023-12-28T09:01:28.368Z,51.97
2023-12-28T09:04:30.678Z,52.73
2023-12-28T09:07:33.096Z,52.63
2023-12-28T09:10:35.560Z,52.76
2023-12-28T09:13:37.800Z,52.10
2023-12-28T09:16:41.894Z,51.70
2023-12-28T09:19:44.374Z,52.22
2023-12-28T09:22:47.172Z,51.53
2023-12-28T09:25:50.376Z,51.41
2023-12-28T09:28:52.659Z,51.61
2023-12-28T09:31:55.106Z,52.05
2023-12-28T09:34:57.403Z,52.00
2023-12-28T09:37:59.850Z,51.99
2023-12-28T09:41:13.573Z,51.03
2023-12-28T09:44:16.471Z,51.48
2023-12-28T09:47:18.775Z,51.50
2023-12-28T09:50:21.425Z,51.00
2023-12-28T09:53:24.656Z,51.72
2023-12-28T09:56:29.890Z,51.35
2023-12-28T09:59:33.798Z,51.58
2023-12-28T10:02:37.509Z,51.13
2023-12-28T10:05:42.101Z,51.13
2023-12-28T10:08:49.196Z,51.36
2023-12-28T10:11:51.584Z,51.67
2023-12-28T10:14:54.910Z,51.43
2023-12-28T10:17:57.275Z,51.65
2023-12-28T10:20:59.529Z,51.35
2023-12-28T10:24:03.244Z,50.85
2023-12-28T10:27:05.506Z,50.67
2023-12-28T10:30:08.633Z,51.15
2023-12-28T10:33:11.262Z,51.10
2023-12-28T10:36:16.751Z,50.60
2023-12-28T10:39:21.447Z,51.16
2023-12-28T10:42:32.053Z,51.21
2023-12-28T10:45:36.030Z,50.50
2023-12-28T10:48:43.787Z,50.64
2023-12-28T10:51:48.955Z,50.47
2023-12-28T10:55:04.421Z,50.10
2023-12-28T10:58:14.881Z,50.22
2023-12-28T11:01:24.258Z,50.04
2023-12-28T11:04:40.071Z,50.00
2023-12-28T11:07:42.461Z,49.72
2023-12-28T11:10:44.937Z,49.82
2023-12-28T11:13:47.691Z,49.74
2023-12-28T11:16:50.000Z,49.35
2023-12-28T11:19:54.330Z,49.20
2023-12-28T11:22:57.241Z,49.22
2023-12-28T11:25:59.658Z,49.36
2023-12-28T11:29:05.320Z,48.86
2023-12-28T11:32:09.346Z,48.63
2023-12-28T11:35:15.716Z,48.81
2023-12-28T11:38:18.539Z,48.12
2023-12-28T11:41:21.942Z,48.07
2023-12-28T11:44:27.454Z,48.11
2023-12-28T11:47:29.854Z,47.85
2023-12-28T11:50:33.052Z,47.98
2023-12-28T11:53:36.592Z,47.54
2023-12-28T11:56:38.876Z,47.40
2023-12-28T11:59:41.357Z,47.08
2023-12-28T12:02:46.725Z,46.89
2023-12-28T12:05:49.198Z,46.99
2023-12-28T12:08:51.456Z,47.38
2023-12-28T12:11:54.958Z,47.37
2023-12-28T12:14:57.667Z,47.68
2023-12-28T12:18:00.504Z,47.34
2023-12-28T12:21:04.257Z,47.24
2023-12-28T12:24:06.839Z,47.29
2023-12-28T12:27:09.150Z,46.99
2023-12-28T12:30:11.716Z,47.17
2023-12-28T12:33:14.245Z,46.64
2023-12-28T12:36:16.974Z,46.40
2023-12-28T12:39:19.263Z,46.63
2023-12-28T12:42:21.602Z,46.23
2023-12-28T12:45:26.932Z,46.14
2023-12-28T12:48:29.451Z,46.63
2023-12-28T12:51:32.112Z,46.13
2023-12-28T12:54:34.482Z,46.15
2023-12-28T12:57:36.924Z,46.12
2023-12-28T13:00:39.283Z,45.96
2023-12-28T13:03:41.784Z,46.25
2023-12-28T13:06:44.348Z,45.89
2023-12-28T13:09:46.678Z,45.68
2023-12-28T13:12:49.031Z,45.92
2023-12-28T13:15:51.377Z,46.03
2023-12-28T13:18:54.377Z,45.50
2023-12-28T13:21:56.920Z,45.58
2023-12-28T13:24:59.248Z,45.93
2023-12-28T13:28:01.855Z,45.82
2023-12-28T13:31:04.481Z,45.86
2023-12-28T13:34:06.884Z,45.52
2023-12-28T13:37:09.386Z,45.60
2023-12-28T13:40:11.974Z,45.77
2023-12-28T13:43:14.282Z,45.42
2023-12-28T13:46:16.555Z,45.53
2023-12-28T13:49:19.302Z,45.59
2023-12-28T13:52:21.853Z,45.50
2023-12-28T13:55:29.068Z,45.95
2023-12-28T13:58:31.366Z,45.58
2023-12-28T14:01:33.687Z,45.43
2023-12-28T14:04:36.794Z,45.42
2023-12-28T14:07:39.076Z,45.54
2023-12-28T14:10:41.331Z,45.87
2023-12-28T14:13:43.644Z,45.63
2023-12-28T14:16:47.249Z,45.81
2023-12-28T14:19:49.737Z,46.02
2023-12-28T14:22:52.389Z,46.21
2023-12-28T14:25:55.029Z,46.50
2023-12-28T14:29:00.166Z,46.57
2023-12-28T14:32:02.742Z,46.86
2023-12-28T14:35:08.887Z,46.69
2023-12-28T14:38:11.231Z,47.04
2023-12-28T14:41:13.581Z,47.78
2023-12-28T14:44:15.808Z,47.58
2023-12-28T14:47:18.068Z,48.13
2023-12-28T14:50:20.401Z,48.48
2023-12-28T14:53:24.605Z,48.71
2023-12-28T14:56:30.026Z,49.21
2023-12-28T14:59:35.793Z,49.78
2023-12-28T15:02:38.218Z,50.09
2023-12-28T15:05:40.400Z,50.81
2023-12-28T15:08:42.727Z,50.88
2023-12-28T15:11:48.799Z,50.62
2023-12-28T15:14:52.030Z,50.66
2023-12-28T15:17:54.757Z,51.46
2023-12-28T15:20:57.552Z,51.35
2023-12-28T15:24:00.288Z,52.07
2023-12-28T15:27:03.354Z,52.45
2023-12-28T15:30:07.080Z,52.51
2023-12-28T15:33:09.662Z,52.48
2023-12-28T15:36:12.057Z,52.62
2023-12-28T15:39:14.362Z,52.99
2023-12-28T15:42:16.603Z,52.78
2023-12-28T15:45:18.772Z,52.96
2023-12-28T15:48:21.156Z,53.23
2023-12-28T15:51:24.468Z,53.13
2023-12-28T15:54:29.578Z,53.54
2023-12-28T15:57:32.356Z,53.89
2023-12-28T16:00:34.758Z,54.25
2023-12-28T16:03:37.240Z,54.37
2023-12-28T16:06:39.448Z,54.76
2023-12-28T16:09:42.046Z,54.58
2023-12-28T16:12:44.541Z,54.25
2023-12-28T16:15:47.270Z,54.40
2023-12-28T16:18:50.093Z,54.85
2023-12-28T16:21:52.886Z,54.41
2023-12-28T16:24:55.262Z,54.18
2023-12-28T16:27:59.288Z,54.14
2023-12-28T16:31:03.236Z,54.48
2023-12-28T16:34:09.826Z,54.48
2023-12-28T16:37:13.671Z,54.33
2023-12-28T16:40:16.305Z,54.89
2023-12-28T16:43:18.800Z,54.17
2023-12-28T16:46:21.200Z,55.40
2023-12-28T16:49:23.574Z,55.59
2023-12-28T16:52:25.846Z,55.15
2023-12-28T16:55:28.224Z,55.35
2023-12-28T16:58:30.473Z,55.57
2023-12-28T17:01:34.361Z,55.43
2023-12-28T17:04:37.156Z,54.72
2023-12-28T17:07:39.614Z,54.89
2023-12-28T17:10:42.225Z,54.86
2023-12-28T17:13:47.867Z,55.78
2023-12-28T17:16:51.032Z,56.13
2023-12-28T17:19:53.700Z,55.19
2023-12-28T17:23:10.359Z,55.49
2023-12-28T17:26:29.052Z,55.22
2023-12-28T17:29:31.554Z,55.63
2023-12-28T17:32:37.249Z,55.51
2023-12-28T17:35:40.048Z,55.63
2023-12-28T17:38:43.868Z,55.81
2023-12-28T17:41:47.961Z,55.72
2023-12-28T17:44:54.458Z,55.01
2023-12-28T17:48:10.353Z,55.15
2023-12-28T17:51:13.512Z,55.69
2023-12-28T17:54:16.077Z,55.84
2023-12-28T17:57:18.403Z,55.62
2023-12-28T18:00:23.634Z,56.46
2023-12-28T18:03:26.273Z,56.28
2023-12-28T18:06:28.801Z,55.88
2023-12-28T18:09:31.213Z,55.51
2023-12-28T18:12:33.739Z,56.04
2023-12-28T18:15:36.354Z,55.62
2023-12-28T18:18:38.977Z,55.43
2023-12-28T18:21:43.970Z,55.27
2023-12-28T18:24:46.283Z,55.83
2023-12-28T18:27:48.580Z,56.06
2023-12-28T18:30:51.089Z,55.20
2023-12-28T18:33:53.558Z,55.19
2023-12-28T18:36:57.392Z,55.36
2023-12-28T18:39:59.716Z,55.48
2023-12-28T18:43:02.158Z,54.93
2023-12-28T18:46:04.573Z,54.81
2023-12-28T18:49:09.596Z,54.58
2023-12-28T18:52:11.996Z,55.02
2023-12-28T18:55:14.682Z,55.13
2023-12-28T18:58:17.168Z,55.24
2023-12-28T19:01:19.665Z,55.09
2023-12-28T19:04:22.165Z,55.04
2023-12-28T19:07:25.104Z,55.70
2023-12-28T19:10:27.369Z,55.34
2023-12-28T19:13:29.825Z,55.59
2023-12-28T19:16:31.969Z,55.42
2023-12-28T19:19:34.582Z,54.93
2023-12-28T19:22:37.425Z,54.70
2023-12-28T19:25:39.760Z,54.85
2023-12-28T19:28:42.114Z,54.52
2023-12-28T19:31:44.429Z,54.64
2023-12-28T19:34:47.271Z,54.33
2023-12-28T19:37:51.694Z,54.07
2023-12-28T19:40:54.050Z,54.26
2023-12-28T19:43:57.003Z,54.37
2023-12-28T19:46:59.250Z,54.50
2023-12-28T19:50:01.978Z,53.80
2023-12-28T19:53:06.007Z,54.35
2023-12-28T19:56:08.676Z,54.28
2023-12-28T19:59:11.598Z,54.37
2023-12-28T20:02:14.545Z,54.61
2023-12-28T20:05:18.489Z,54.12
2023-12-28T20:08:20.934Z,54.76
2023-12-28T20:11:23.164Z,54.29
2023-12-28T20:14:25.554Z,54.18
2023-12-28T20:17:27.937Z,54.01
2023-12-28T20:20:30.500Z,54.32
2023-12-28T20:23:33.002Z,54.52
2023-12-28T20:26:35.694Z,54.39
2023-12-28T20:29:38.348Z,54.00
2023-12-28T20:32:41.475Z,53.65
2023-12-28T20:35:43.892Z,53.36
2023-12-28T20:38:46.166Z,54.19
2023-12-28T20:41:48.440Z,53.77
2023-12-28T20:44:50.718Z,53.95
2023-12-28T20:47:53.037Z,53.79
2023-12-28T20:50:55.320Z,53.94
2023-12-28T20:53:57.557Z,54.14
2023-12-28T20:56:59.876Z,54.13
2023-12-28T21:00:02.335Z,53.52
2023-12-28T21:03:04.905Z,53.24
2023-12-28T21:06:07.251Z,53.34
2023-12-28T21:09:09.482Z,53.31
2023-12-28T21:12:13.568Z,53.51
2023-12-28T21:15:15.846Z,53.44
2023-12-28T21:18:27.286Z,53.94
2023-12-28T21:21:33.183Z,53.87
2023-12-28T21:24:38.557Z,53.41
2023-12-28T21:27:40.937Z,53.57
2023-12-28T21:30:43.379Z,53.52
2023-12-28T21:33:45.810Z,53.45
2023-12-28T21:36:49.725Z,52.79
2023-12-28T21:39:52.067Z,53.52
2023-12-28T21:42:57.035Z,53.37
2023-12-28T21:45:59.742Z,52.55
2023-12-28T21:49:02.139Z,53.23
2023-12-28T21:52:04.735Z,52.78
2023-12-28T21:55:07.602Z,53.09
2023-12-28T21:58:12.783Z,52.99
2023-12-28T22:01:15.189Z,53.12
2023-12-28T22:04:17.552Z,53.10
2023-12-28T22:07:19.889Z,52.09
2023-12-28T22:10:22.394Z,52.87
2023-12-28T22:13:24.775Z,52.63
2023-12-28T22:16:27.020Z,52.50
2023-12-28T22:19:29.568Z,52.68
2023-12-28T22:22:31.898Z,52.50
2023-12-28T22:25:34.100Z,52.67
2023-12-28T22:28:36.411Z,52.58
2023-12-28T22:34:41.271Z,53.93
2023-12-28T22:37:43.514Z,53.54
2023-12-28T22:40:45.951Z,53.59
2023-12-28T22:43:48.192Z,53.01
2023-12-28T22:46:50.704Z,52.75
2023-12-28T22:49:53.128Z,52.26
2023-12-28T22:52:55.464Z,53.98
2023-12-28T22:55:57.790Z,54.15
2023-12-28T22:59:00.075Z,53.55
2023-12-28T23:02:02.553Z,53.35
2023-12-28T23:05:05.185Z,52.86
2023-12-28T23:08:07.492Z,52.53
2023-12-28T23:11:10.002Z,52.53
2023-12-28T23:14:12.316Z,53.00
2023-12-28T23:17:14.554Z,52.71
2023-12-28T23:20:16.855Z,52.97
2023-12-28T23:23:19.050Z,52.12
2023-12-28T23:26:22.311Z,52.72
2023-12-28T23:29:24.705Z,51.67
2023-12-28T23:32:27.095Z,52.12
2023-12-28T23:35:29.361Z,52.47
2023-12-28T23:38:31.563Z,52.37
2023-12-28T23:41:33.802Z,52.30
2023-12-28T23:44:38.687Z,52.32
2023-12-28T23:47:40.906Z,52.20
2023-12-28T23:50:43.418Z,52.63
2023-12-28T23:53:46.630Z,52.68
2023-12-28T23:56:48.877Z,52.30
2023-12-28T23:59:51.081Z,52.84
